Terminal Aerodrome Forecast
Issued by NWS

Home | Current Version | Previous Version | Text Only | Print | Product List | Glossary On
Versions: 1 2 3 4 5 6 7 8 9 10 11 12 13 14 15 16 17 18
000
FTUS45 KGGW 250500
TAFSDY
TAF
KSDY 250520Z 2506/2606 32007KT P6SM OVC120
     FM250900 33012KT P6SM BKN050
     FM251200 33013KT P6SM BKN015
     FM252100 33012KT P6SM BKN050
     FM260100 VRB06KT P6SM SKC
      AMD LTD TO CLD VIS AND WIND=

USA.gov is the U.S. government's official web portal to all federal, state and local government web resources and services.